Time;durP1;ratioP1;P1;durP2;ratioP2;P2;SDS_P1;SDS_P2;PMS_P1;PMS_P2;Temp;Humidity;BMP_temperature;BMP_pressure;BME280_temperature;BME280_humidity;BME280_pressure;Samples;Min_cycle;Max_cycle;Signal;HPM_P1;HPM_P2
2022/05/02 00:00:48;;;;;;;9.20;5.00;;;5.50;99.90;;;;;;5051824;28;20049;-68
2022/05/02 00:03:14;;;;;;;8.75;5.05;;;5.50;99.90;;;;;;5050757;28;20038;-68
2022/05/02 00:05:40;;;;;;;10.75;5.70;;;5.50;99.90;;;;;;5051820;28;20041;-68
2022/05/02 00:08:06;;;;;;;9.00;4.90;;;5.50;99.90;;;;;;5034157;28;20512;-68
2022/05/02 00:10:33;;;;;;;8.90;5.40;;;5.40;99.90;;;;;;5050917;28;20041;-68
2022/05/02 00:12:58;;;;;;;9.57;5.60;;;5.50;99.90;;;;;;5034733;28;20401;-68
2022/05/02 00:15:24;;;;;;;8.25;5.22;;;5.50;99.90;;;;;;5051793;28;20033;-68
2022/05/02 00:17:56;;;;;;;9.38;5.72;;;5.60;99.90;;;;;;5034289;28;20086;-68
2022/05/02 00:20:27;;;;;;;8.38;5.25;;;5.50;99.90;;;;;;5050926;28;20072;-68
2022/05/02 00:22:53;;;;;;;8.20;5.22;;;5.60;99.90;;;;;;5035121;28;20075;-68
2022/05/02 00:25:19;;;;;;;8.35;5.43;;;5.70;99.90;;;;;;5051645;28;20045;-68
2022/05/02 00:27:46;;;;;;;8.85;5.22;;;5.60;99.90;;;;;;5051687;28;20048;-67
2022/05/02 00:30:12;;;;;;;9.77;6.05;;;5.60;99.90;;;;;;5050622;28;20072;-68
2022/05/02 00:32:39;;;;;;;10.18;6.60;;;5.50;99.90;;;;;;5050526;28;20052;-67
2022/05/02 00:35:06;;;;;;;9.63;6.15;;;5.50;99.90;;;;;;5034868;28;20131;-67
2022/05/02 00:37:31;;;;;;;11.95;6.60;;;5.40;99.90;;;;;;5034908;28;20508;-67
2022/05/02 00:39:57;;;;;;;10.93;6.45;;;5.40;99.90;;;;;;5050964;28;20120;-67
2022/05/02 00:42:23;;;;;;;11.77;6.28;;;5.30;99.90;;;;;;5035781;28;20045;-67
2022/05/02 00:44:49;;;;;;;10.40;6.97;;;5.30;99.90;;;;;;5055141;28;20064;-67
2022/05/02 00:47:15;;;;;;;11.70;6.53;;;5.20;99.90;;;;;;5038953;28;20429;-67
2022/05/02 00:49:42;;;;;;;11.13;6.93;;;5.20;99.90;;;;;;5054628;28;20447;-67
2022/05/02 00:52:08;;;;;;;9.60;6.30;;;5.10;99.90;;;;;;5055228;28;20128;-67
2022/05/02 00:54:35;;;;;;;9.55;6.15;;;5.20;99.90;;;;;;5053408;28;20441;-67
2022/05/02 00:57:02;;;;;;;9.50;5.70;;;5.40;99.90;;;;;;5055192;28;20074;-67
2022/05/02 00:59:28;;;;;;;9.02;5.45;;;5.50;99.90;;;;;;5038601;28;20151;-68
2022/05/02 01:01:53;;;;;;;11.13;6.53;;;5.40;99.90;;;;;;5037578;28;20040;-68
2022/05/02 01:04:19;;;;;;;11.98;6.78;;;5.30;99.90;;;;;;5054233;28;20111;-67
2022/05/02 01:09:31;;;;;;;8.85;6.55;;;5.10;99.90;;;;;;5053130;28;20045;-67
2022/05/02 01:11:57;;;;;;;10.60;6.38;;;5.10;99.90;;;;;;5038223;28;20048;-68
2022/05/02 01:14:23;;;;;;;11.27;6.30;;;5.10;99.90;;;;;;5054067;28;20500;-67
2022/05/02 01:16:49;;;;;;;9.13;6.20;;;5.10;99.90;;;;;;5054697;28;20109;-67
2022/05/02 01:19:15;;;;;;;9.18;5.93;;;5.10;99.90;;;;;;5070465;28;20041;-67
2022/05/02 01:21:44;;;;;;;8.85;5.68;;;5.20;99.90;;;;;;5055075;28;20485;-67
2022/05/02 01:24:09;;;;;;;8.95;5.82;;;5.10;99.90;;;;;;5053895;28;20072;-67
2022/05/02 01:26:37;;;;;;;9.00;6.00;;;5.20;99.90;;;;;;5038131;28;20127;-67
2022/05/02 01:29:03;;;;;;;9.00;6.28;;;5.10;99.90;;;;;;5053788;28;20048;-67
2022/05/02 01:31:29;;;;;;;9.85;6.45;;;5.00;99.90;;;;;;5038217;28;20147;-67
2022/05/02 01:33:55;;;;;;;10.07;6.07;;;5.00;99.90;;;;;;5053189;28;20533;-67
2022/05/02 01:36:22;;;;;;;10.50;5.72;;;5.00;99.90;;;;;;5054735;28;20106;-67
2022/05/02 01:38:48;;;;;;;9.45;6.28;;;5.10;99.90;;;;;;5053745;28;20497;-67
2022/05/02 01:41:14;;;;;;;10.30;6.32;;;5.00;99.90;;;;;;5054303;28;20036;-67
2022/05/02 01:43:40;;;;;;;9.13;6.13;;;5.00;99.90;;;;;;5068437;28;20044;-67
2022/05/02 01:46:07;;;;;;;9.95;6.55;;;5.00;99.90;;;;;;5054505;28;20481;-67
2022/05/02 01:48:33;;;;;;;10.70;6.57;;;5.00;99.90;;;;;;5054279;28;20048;-67
2022/05/02 01:50:58;;;;;;;9.20;6.55;;;5.00;99.90;;;;;;5054443;28;20389;-67
2022/05/02 01:53:25;;;;;;;10.27;6.63;;;4.90;99.90;;;;;;5052266;28;20519;-67
2022/05/02 01:55:51;;;;;;;10.13;6.32;;;4.90;99.90;;;;;;5052658;28;20508;-68
2022/05/02 01:58:17;;;;;;;10.15;6.07;;;4.90;99.90;;;;;;5037377;28;20052;-67
2022/05/02 02:00:43;;;;;;;10.40;6.80;;;4.90;99.90;;;;;;5053988;28;20033;-67
2022/05/02 02:03:08;;;;;;;9.85;6.03;;;4.90;99.90;;;;;;5036572;28;20480;-67
2022/05/02 02:05:49;;;;;;;10.70;6.07;;;4.80;99.90;;;;;;5053940;28;20126;-68
2022/05/02 02:08:26;;;;;;;10.43;6.57;;;4.80;99.90;;;;;;5069941;28;20037;-67
2022/05/02 02:10:55;;;;;;;10.98;6.50;;;4.80;99.90;;;;;;5037220;28;20056;-67
2022/05/02 02:13:21;;;;;;;10.38;6.53;;;4.80;99.90;;;;;;5052812;28;20047;-68
2022/05/02 02:15:47;;;;;;;12.55;7.32;;;4.80;99.90;;;;;;5054047;28;20041;-67
2022/05/02 02:18:13;;;;;;;11.02;7.32;;;4.70;99.90;;;;;;5052734;28;20037;-67
2022/05/02 02:20:42;;;;;;;11.27;7.65;;;4.70;99.90;;;;;;5037026;28;20072;-67
2022/05/02 02:23:09;;;;;;;12.02;6.88;;;4.60;99.90;;;;;;5033233;28;20041;-67
2022/05/02 02:25:37;;;;;;;11.80;6.75;;;4.60;99.90;;;;;;5053177;28;20120;-67
2022/05/02 02:28:03;;;;;;;11.00;7.43;;;4.60;99.90;;;;;;5052187;28;20037;-67
2022/05/02 02:30:32;;;;;;;9.80;6.65;;;4.50;99.90;;;;;;5036572;28;20047;-67
2022/05/02 02:32:57;;;;;;;10.82;6.85;;;4.60;99.90;;;;;;5036027;28;20051;-67
2022/05/02 02:35:23;;;;;;;13.52;8.65;;;4.50;99.90;;;;;;5036513;28;20493;-67
2022/05/02 02:37:49;;;;;;;11.02;7.28;;;4.50;99.90;;;;;;5053416;28;20088;-67
2022/05/02 02:40:16;;;;;;;10.23;7.00;;;4.40;99.90;;;;;;5052701;28;20053;-67
2022/05/02 02:42:41;;;;;;;9.70;6.63;;;4.40;99.90;;;;;;5053251;28;20037;-67
2022/05/02 02:45:08;;;;;;;11.70;8.25;;;4.40;99.90;;;;;;5035551;28;20515;-67
2022/05/02 02:47:33;;;;;;;11.43;7.78;;;4.40;99.90;;;;;;5036545;28;20041;-67
2022/05/02 02:49:59;;;;;;;11.27;7.85;;;4.30;99.90;;;;;;5052362;28;20170;-67
2022/05/02 02:52:24;;;;;;;11.25;7.60;;;4.30;99.90;;;;;;5036429;28;20045;-67
2022/05/02 02:54:50;;;;;;;10.98;7.47;;;4.20;99.90;;;;;;5051454;28;20505;-67
2022/05/02 02:57:16;;;;;;;12.73;8.50;;;4.20;99.90;;;;;;5036255;28;20123;-67
2022/05/02 02:59:41;;;;;;;12.90;8.43;;;4.10;99.90;;;;;;5036321;28;20048;-67
2022/05/02 03:02:07;;;;;;;12.27;9.00;;;4.10;99.90;;;;;;5053098;28;20040;-68
2022/05/02 03:07:18;;;;;;;11.40;8.25;;;4.00;99.90;;;;;;5052787;28;20077;-67
2022/05/02 03:09:44;;;;;;;12.45;9.23;;;4.00;99.90;;;;;;5035493;28;20069;-67
2022/05/02 03:12:10;;;;;;;13.70;8.60;;;4.00;99.90;;;;;;5052879;28;20517;-67
2022/05/02 03:14:35;;;;;;;13.60;9.00;;;4.00;99.90;;;;;;5051907;28;20047;-67
2022/05/02 03:17:01;;;;;;;12.00;8.30;;;4.00;99.90;;;;;;5036158;28;20068;-67
2022/05/02 03:19:27;;;;;;;13.48;8.75;;;4.10;99.90;;;;;;5051958;28;20033;-68
2022/05/02 03:21:53;;;;;;;14.43;9.10;;;4.00;99.90;;;;;;5052404;28;20033;-68
2022/05/02 03:24:18;;;;;;;12.98;8.77;;;3.90;99.90;;;;;;5051606;28;20076;-67
2022/05/02 03:26:44;;;;;;;12.48;8.75;;;3.90;99.90;;;;;;5052499;28;20557;-68
2022/05/02 03:29:09;;;;;;;13.13;8.55;;;3.90;99.90;;;;;;5068349;28;20106;-68
2022/05/02 03:31:35;;;;;;;13.90;9.55;;;3.90;99.90;;;;;;5036063;28;20037;-67
2022/05/02 03:34:00;;;;;;;13.10;8.57;;;3.80;99.90;;;;;;5051312;28;20053;-67
2022/05/02 03:36:26;;;;;;;12.57;8.80;;;3.80;99.90;;;;;;5052319;28;20048;-67
2022/05/02 03:38:51;;;;;;;12.05;9.07;;;3.90;99.90;;;;;;5068008;28;20454;-68
2022/05/02 03:41:17;;;;;;;14.52;8.73;;;3.90;99.90;;;;;;5051375;28;20041;-68
2022/05/02 03:43:43;;;;;;;12.98;8.65;;;3.90;99.90;;;;;;5034033;28;20111;-67
2022/05/02 03:46:09;;;;;;;13.80;9.75;;;3.90;99.90;;;;;;5052030;28;20082;-67
2022/05/02 03:48:34;;;;;;;13.13;9.85;;;3.90;99.90;;;;;;5051165;28;20550;-67
2022/05/02 03:51:00;;;;;;;12.23;8.77;;;3.90;99.90;;;;;;5051981;28;20052;-67
2022/05/02 03:53:25;;;;;;;12.35;9.32;;;3.80;99.90;;;;;;5051215;28;20123;-67
2022/05/02 03:55:51;;;;;;;15.48;9.68;;;3.80;99.90;;;;;;5035626;28;20044;-67
2022/05/02 03:58:17;;;;;;;14.10;8.57;;;3.80;99.90;;;;;;5051103;28;20037;-67
2022/05/02 04:00:43;;;;;;;11.98;8.57;;;3.80;99.90;;;;;;5051997;28;20041;-67
2022/05/02 04:03:08;;;;;;;11.57;8.30;;;3.90;99.90;;;;;;5051263;28;20067;-67
2022/05/02 04:05:34;;;;;;;11.75;8.85;;;3.90;99.90;;;;;;5052042;28;20041;-67
2022/05/02 04:07:59;;;;;;;12.77;9.20;;;3.90;99.90;;;;;;5051016;28;20124;-67
2022/05/02 04:10:25;;;;;;;12.65;8.60;;;3.90;99.90;;;;;;5051835;28;20084;-67
2022/05/02 04:12:50;;;;;;;13.55;9.38;;;3.90;99.90;;;;;;5035489;28;20553;-68
2022/05/02 04:15:17;;;;;;;12.30;8.57;;;3.80;99.90;;;;;;5050632;28;20041;-67
2022/05/02 04:17:43;;;;;;;13.02;8.85;;;3.80;99.90;;;;;;5054005;28;20448;-67
2022/05/02 04:20:10;;;;;;;12.70;9.32;;;3.70;99.90;;;;;;5055278;28;20044;-67
2022/05/02 04:22:36;;;;;;;13.27;9.15;;;3.70;99.90;;;;;;5055827;28;20037;-67
2022/05/02 04:25:02;;;;;;;13.88;9.20;;;3.80;99.90;;;;;;5053743;28;20044;-67
2022/05/02 04:27:28;;;;;;;14.45;10.05;;;3.80;99.90;;;;;;5057335;28;20045;-67
2022/05/02 04:29:54;;;;;;;13.25;9.35;;;3.90;99.90;;;;;;5039104;28;20041;-67
2022/05/02 04:32:19;;;;;;;17.95;9.25;;;3.80;99.90;;;;;;5039018;28;20048;-67
2022/05/02 04:34:45;;;;;;;13.13;9.50;;;3.90;99.90;;;;;;5054341;28;20194;-68
2022/05/02 04:37:11;;;;;;;11.43;8.30;;;4.00;99.90;;;;;;5039215;28;20100;-68
2022/05/02 04:39:36;;;;;;;14.10;9.40;;;4.00;99.90;;;;;;5054735;28;20044;-67
2022/05/02 04:42:02;;;;;;;12.00;8.55;;;4.10;99.90;;;;;;5055549;28;20041;-67
2022/05/02 04:44:29;;;;;;;13.48;10.23;;;4.10;99.90;;;;;;5054381;28;20037;-67
2022/05/02 04:46:54;;;;;;;12.57;9.60;;;4.10;99.90;;;;;;5055384;28;20037;-67
2022/05/02 04:49:20;;;;;;;14.10;9.98;;;4.10;99.90;;;;;;5055306;28;20385;-67
2022/05/02 04:51:45;;;;;;;12.25;9.32;;;4.20;99.90;;;;;;5055221;28;20087;-67
2022/05/02 04:54:11;;;;;;;12.10;8.73;;;4.10;99.90;;;;;;5071062;28;20090;-67
2022/05/02 04:56:37;;;;;;;12.27;8.82;;;4.20;99.90;;;;;;5037949;28;20037;-67
2022/05/02 04:59:02;;;;;;;13.38;8.88;;;4.20;99.90;;;;;;5055192;28;20052;-67
2022/05/02 05:01:28;;;;;;;13.00;9.23;;;4.30;99.90;;;;;;5038573;28;20443;-67
2022/05/02 05:03:54;;;;;;;16.92;11.05;;;4.30;99.90;;;;;;5053364;28;20029;-67
2022/05/02 05:06:19;;;;;;;16.58;11.13;;;4.20;99.90;;;;;;5052479;28;20477;-67
2022/05/02 05:08:45;;;;;;;15.57;10.75;;;4.10;99.90;;;;;;5065199;28;20040;-67
2022/05/02 05:11:34;;;;;;;16.13;11.00;;;4.00;99.90;;;;;;5037949;28;20401;-67
2022/05/02 05:17:11;;;;;;;16.30;11.02;;;4.10;99.90;;;;;;5069510;28;20155;-67
2022/05/02 05:20:03;;;;;;;14.05;10.75;;;4.10;99.90;;;;;;5054431;28;20481;-67
2022/05/02 05:22:53;;;;;;;14.83;10.67;;;4.20;99.90;;;;;;5071510;28;20044;-67
2022/05/02 05:25:33;;;;;;;12.88;9.93;;;4.30;99.90;;;;;;5054662;28;20264;-67
2022/05/02 05:28:17;;;;;;;12.27;8.27;;;4.50;99.90;;;;;;5054528;28;20558;-67
2022/05/02 05:30:50;;;;;;;13.27;9.07;;;4.60;99.90;;;;;;5051362;28;20048;-67
2022/05/02 05:33:24;;;;;;;13.73;9.18;;;4.70;99.90;;;;;;5067115;28;20121;-67
2022/05/02 05:36:28;;;;;;;13.98;9.15;;;4.70;99.90;;;;;;5054298;28;20048;-67
2022/05/02 05:39:06;;;;;;;14.15;10.73;;;4.80;99.90;;;;;;5051065;28;20046;-67
2022/05/02 05:41:46;;;;;;;16.58;11.13;;;4.90;99.90;;;;;;5034410;28;20033;-67
2022/05/02 05:44:40;;;;;;;18.83;12.40;;;4.90;99.90;;;;;;5049897;28;20037;-67
2022/05/02 05:47:35;;;;;;;17.02;12.02;;;5.10;99.90;;;;;;5034220;28;20069;-67
2022/05/02 05:50:18;;;;;;;15.55;11.25;;;5.20;99.90;;;;;;5035513;28;20078;-67
2022/05/02 05:52:55;;;;;;;16.00;12.60;;;5.30;99.90;;;;;;5040471;28;20163;-67
2022/05/02 05:55:44;;;;;;;17.00;11.18;;;5.50;99.90;;;;;;5053383;28;20051;-67
2022/05/02 05:58:18;;;;;;;15.00;10.88;;;5.70;99.90;;;;;;5037536;28;20048;-67
2022/05/02 06:00:44;;;;;;;17.20;11.57;;;5.90;99.90;;;;;;5028151;28;20102;-67
2022/05/02 06:03:23;;;;;;;15.70;11.88;;;6.10;99.90;;;;;;5053147;28;20033;-67
2022/05/02 06:05:49;;;;;;;16.30;10.98;;;6.20;99.90;;;;;;5035664;28;20045;-67
2022/05/02 06:08:22;;;;;;;15.68;12.00;;;6.40;99.90;;;;;;5043045;28;20051;-67
2022/05/02 06:10:50;;;;;;;15.85;10.90;;;6.60;99.90;;;;;;5053567;28;20076;-67
2022/05/02 06:13:17;;;;;;;14.80;11.35;;;6.80;99.90;;;;;;5053244;28;20037;-67
2022/05/02 06:18:36;;;;;;;18.48;11.20;;;7.20;99.90;;;;;;5053226;28;20049;-67
2022/05/02 06:21:04;;;;;;;13.05;10.10;;;7.40;99.90;;;;;;5053184;28;20048;-67
2022/05/02 06:23:42;;;;;;;18.35;11.10;;;7.50;99.90;;;;;;5053243;28;20493;-67
2022/05/02 06:26:09;;;;;;;14.38;9.88;;;7.70;99.90;;;;;;5052968;28;20073;-67
2022/05/02 06:28:43;;;;;;;13.43;9.25;;;7.90;99.90;;;;;;5053352;28;20091;-68
2022/05/02 06:31:21;;;;;;;14.02;10.05;;;8.00;99.90;;;;;;5069496;28;20048;-68
2022/05/02 06:33:48;;;;;;;15.60;10.75;;;8.10;99.90;;;;;;5036073;28;20041;-68
2022/05/02 06:36:52;;;;;;;14.48;11.07;;;8.30;99.90;;;;;;5052707;28;20065;-68
2022/05/02 06:39:36;;;;;;;14.55;9.88;;;8.40;99.90;;;;;;5034606;28;20049;-68
2022/05/02 06:42:10;;;;;;;14.07;9.82;;;8.60;99.90;;;;;;5062942;28;20037;-68
2022/05/02 06:44:54;;;;;;;13.73;9.90;;;8.60;99.90;;;;;;5036142;28;20082;-68
2022/05/02 06:47:56;;;;;;;14.13;9.90;;;8.80;99.90;;;;;;5032509;28;20033;-68
2022/05/02 06:50:24;;;;;;;15.32;9.35;;;8.90;99.90;;;;;;5047710;28;20440;-68
2022/05/02 06:53:18;;;;;;;14.38;9.98;;;9.00;99.90;;;;;;5034439;28;20072;-68
2022/05/02 06:56:08;;;;;;;13.75;8.82;;;9.10;99.90;;;;;;5034999;28;20167;-68
2022/05/02 06:58:45;;;;;;;14.55;9.10;;;9.30;99.90;;;;;;5054178;28;20558;-68
2022/05/02 07:01:37;;;;;;;13.88;9.10;;;9.40;99.90;;;;;;5050774;28;20041;-68
2022/05/02 07:04:26;;;;;;;14.87;9.27;;;9.60;99.90;;;;;;5040154;28;20119;-71
2022/05/02 07:07:01;;;;;;;16.15;9.13;;;9.60;99.90;;;;;;5062957;28;20071;-72
2022/05/02 07:09:41;;;;;;;11.60;8.07;;;9.70;99.90;;;;;;5039957;28;20389;-68
2022/05/02 07:12:16;;;;;;;15.60;9.23;;;9.90;99.90;;;;;;5033533;28;20044;-68
2022/05/02 07:15:04;;;;;;;13.18;8.25;;;10.00;99.90;;;;;;5055741;28;20072;-69
2022/05/02 07:17:41;;;;;;;15.73;9.50;;;10.10;99.90;;;;;;5034897;28;20041;-69
2022/05/02 07:20:23;;;;;;;13.43;9.23;;;10.10;99.90;;;;;;5037232;28;20056;-68
2022/05/02 07:23:17;;;;;;;13.60;9.48;;;10.20;99.90;;;;;;5052595;28;20493;-68
2022/05/02 07:25:50;;;;;;;14.77;9.65;;;10.30;99.90;;;;;;5045894;28;20040;-68
2022/05/02 07:28:29;;;;;;;12.18;8.77;;;10.40;99.90;;;;;;5035563;28;20089;-68
2022/05/02 07:30:58;;;;;;;11.68;8.43;;;10.50;99.90;;;;;;5053285;28;20525;-68
2022/05/02 07:33:36;;;;;;;13.50;10.02;;;10.70;99.90;;;;;;5067762;28;20045;-68
2022/05/02 07:36:02;;;;;;;13.50;9.25;;;10.80;99.90;;;;;;5051371;28;20488;-68
2022/05/02 07:38:33;;;;;;;12.75;8.85;;;10.80;99.90;;;;;;5034201;28;20516;-68
2022/05/02 07:44:09;;;;;;;11.82;8.95;;;11.00;99.90;;;;;;5048956;28;20045;-68
2022/05/02 07:46:42;;;;;;;12.93;9.32;;;11.10;99.90;;;;;;5052269;28;20091;-68
2022/05/02 07:49:10;;;;;;;13.13;8.70;;;11.20;99.90;;;;;;5034334;28;20051;-68
2022/05/02 07:51:42;;;;;;;14.40;9.45;;;11.30;99.90;;;;;;5033816;28;20455;-68
2022/05/02 07:54:14;;;;;;;15.13;9.27;;;11.30;99.90;;;;;;5034268;28;20041;-68
2022/05/02 07:56:41;;;;;;;13.35;8.68;;;11.40;99.90;;;;;;5050255;28;20110;-68
2022/05/02 07:59:08;;;;;;;13.38;9.73;;;11.40;99.90;;;;;;5032185;28;20164;-68
2022/05/02 08:01:34;;;;;;;13.38;8.52;;;11.60;99.90;;;;;;5042296;28;20069;-68
2022/05/02 08:04:00;;;;;;;13.57;9.10;;;11.80;99.90;;;;;;5051348;28;20081;-68
2022/05/02 08:06:34;;;;;;;10.93;8.80;;;11.80;99.90;;;;;;5052138;28;20056;-68
2022/05/02 08:09:21;;;;;;;11.75;8.52;;;11.90;99.90;;;;;;5033429;28;20041;-68
2022/05/02 08:11:58;;;;;;;12.00;8.85;;;11.90;99.90;;;;;;5027823;28;20041;-68
2022/05/02 08:14:50;;;;;;;10.90;7.57;;;12.00;99.90;;;;;;5034288;28;20037;-68
2022/05/02 08:17:21;;;;;;;11.97;8.27;;;12.10;99.90;;;;;;5038856;28;20041;-69
2022/05/02 08:20:11;;;;;;;12.23;7.32;;;12.40;99.90;;;;;;5049253;28;20276;-68
2022/05/02 08:29:01;;;;;;;14.23;8.52;;;12.60;99.90;;;;;;5050240;28;20049;-68
2022/05/02 08:31:41;;;;;;;12.60;8.18;;;12.70;99.90;;;;;;5052863;28;20040;-68
2022/05/02 08:34:33;;;;;;;12.13;7.88;;;12.80;99.90;;;;;;5038412;28;20068;-68
2022/05/02 08:37:17;;;;;;;11.52;8.07;;;13.00;99.90;;;;;;5049118;28;20570;-69
2022/05/02 08:40:03;;;;;;;11.80;7.47;;;13.00;99.90;;;;;;5052004;28;20049;-68
2022/05/02 08:43:00;;;;;;;11.85;7.53;;;13.20;99.90;;;;;;5050224;28;20141;-69
2022/05/02 08:46:03;;;;;;;11.60;7.38;;;13.20;99.90;;;;;;5050143;28;20036;-68
2022/05/02 08:52:20;;;;;;;13.77;8.32;;;13.30;99.90;;;;;;5041614;28;20041;-68
2022/05/02 08:55:06;;;;;;;13.70;8.40;;;13.40;99.90;;;;;;5050069;28;20409;-68
2022/05/02 08:57:56;;;;;;;13.77;9.20;;;13.40;99.90;;;;;;5049255;28;20045;-68
2022/05/02 09:00:40;;;;;;;11.82;8.23;;;13.50;99.90;;;;;;5063894;28;20485;-69
2022/05/02 09:03:14;;;;;;;11.73;7.78;;;13.50;97.90;;;;;;5054140;28;20044;-68
2022/05/02 09:05:48;;;;;;;10.20;7.00;;;13.60;99.90;;;;;;5034431;28;20045;-68
2022/05/02 09:08:37;;;;;;;13.18;7.72;;;13.80;99.90;;;;;;5051057;28;20038;-68
2022/05/02 09:11:31;;;;;;;13.30;8.05;;;14.00;99.90;;;;;;5053988;28;20400;-69
2022/05/02 09:14:41;;;;;;;13.63;8.32;;;14.10;98.90;;;;;;5052570;28;20083;-72
2022/05/02 09:17:25;;;;;;;13.63;8.27;;;14.10;95.10;;;;;;5037042;28;20451;-68
2022/05/02 09:20:14;;;;;;;10.30;7.47;;;14.30;99.30;;;;;;5037630;28;20524;-68
2022/05/02 09:23:18;;;;;;;11.30;7.20;;;14.30;99.20;;;;;;5054943;28;20036;-68
2022/05/02 09:26:05;;;;;;;12.50;7.47;;;14.50;99.90;;;;;;5025196;28;20049;-68
2022/05/02 09:29:08;;;;;;;12.00;7.78;;;14.50;96.80;;;;;;5034188;28;20072;-68
2022/05/02 09:32:18;;;;;;;13.23;7.53;;;14.70;98.20;;;;;;5017789;28;20045;-68
2022/05/02 09:34:56;;;;;;;11.25;7.25;;;14.90;97.30;;;;;;5049717;28;20183;-68
2022/05/02 09:37:31;;;;;;;10.40;7.40;;;15.00;96.90;;;;;;5017523;28;20045;-68
2022/05/02 09:40:09;;;;;;;12.80;7.95;;;15.00;96.60;;;;;;5034060;28;20651;-68
2022/05/02 09:42:45;;;;;;;12.20;6.78;;;15.10;96.50;;;;;;5033254;28;20518;-68
2022/05/02 09:51:55;;;;;;;13.07;7.68;;;15.10;95.50;;;;;;5053547;28;20556;-68
2022/05/02 09:57:18;;;;;;;11.13;7.07;;;15.30;92.80;;;;;;5053390;28;20451;-68
2022/05/02 10:02:44;;;;;;;11.20;7.30;;;15.40;93.10;;;;;;5053613;28;20037;-68
2022/05/02 10:05:19;;;;;;;9.82;7.03;;;15.40;93.90;;;;;;5052121;28;20041;-68
2022/05/02 10:08:00;;;;;;;11.57;7.10;;;15.30;94.20;;;;;;5052091;28;20112;-68
2022/05/02 10:10:44;;;;;;;9.90;6.75;;;15.20;90.20;;;;;;5052625;28;20037;-68
2022/05/02 10:13:47;;;;;;;10.27;6.82;;;15.40;93.90;;;;;;5030405;28;20511;-68
2022/05/02 10:16:41;;;;;;;11.25;6.82;;;15.50;92.60;;;;;;5057454;28;20519;-68
2022/05/02 10:19:28;;;;;;;10.43;5.97;;;15.60;82.00;;;;;;5033672;28;20103;-68
2022/05/02 10:22:02;;;;;;;10.82;6.82;;;15.70;91.30;;;;;;5050712;28;20055;-68
2022/05/02 10:24:31;;;;;;;11.07;6.78;;;15.70;91.50;;;;;;5052335;28;20443;-68
2022/05/02 10:27:15;;;;;;;9.45;6.90;;;15.70;90.30;;;;;;5052628;28;20444;-68
2022/05/02 10:29:53;;;;;;;10.25;6.57;;;15.50;92.60;;;;;;5036138;28;20098;-68
2022/05/02 10:32:40;;;;;;;10.82;6.88;;;15.30;93.20;;;;;;5031422;28;20409;-68
2022/05/02 10:35:14;;;;;;;11.93;6.53;;;15.30;92.90;;;;;;5050337;28;20497;-68
2022/05/02 10:37:42;;;;;;;10.20;5.82;;;15.30;93.00;;;;;;5049512;28;20154;-68
2022/05/02 10:40:10;;;;;;;9.43;6.15;;;15.40;93.90;;;;;;5050557;28;20049;-68
2022/05/02 10:42:44;;;;;;;9.30;6.60;;;15.50;87.30;;;;;;5052065;28;20056;-68
2022/05/02 10:45:10;;;;;;;10.85;6.78;;;15.60;91.30;;;;;;5035621;28;20131;-68
2022/05/02 10:47:53;;;;;;;10.52;6.75;;;15.60;80.80;;;;;;5036958;28;20040;-68
2022/05/02 10:50:21;;;;;;;10.60;6.53;;;15.70;78.90;;;;;;5047827;28;20392;-68
2022/05/02 10:52:46;;;;;;;10.50;6.55;;;15.60;72.40;;;;;;5069898;28;20411;-68
2022/05/02 10:55:32;;;;;;;8.90;6.28;;;15.50;75.80;;;;;;5034235;28;20041;-68
2022/05/02 10:58:04;;;;;;;8.82;5.65;;;15.50;87.00;;;;;;5052467;28;20045;-68
2022/05/02 11:00:30;;;;;;;9.95;5.88;;;15.70;88.10;;;;;;5036168;28;20584;-68
2022/05/02 11:03:12;;;;;;;11.95;6.65;;;15.80;79.60;;;;;;5050479;28;20037;-68
2022/05/02 11:06:03;;;;;;;10.68;6.35;;;15.80;77.80;;;;;;5051393;28;20076;-68
2022/05/02 11:08:54;;;;;;;10.20;6.47;;;15.80;78.30;;;;;;5059711;28;20387;-68
2022/05/02 11:11:27;;;;;;;9.77;6.30;;;15.90;79.40;;;;;;5058823;28;20298;-69
2022/05/02 11:14:16;;;;;;;10.70;6.63;;;15.90;77.70;;;;;;5051675;28;20045;-68
2022/05/02 11:17:16;;;;;;;10.18;6.53;;;16.10;74.30;;;;;;5052467;28;20370;-68
2022/05/02 11:22:42;;;;;;;11.07;6.35;;;16.00;81.10;;;;;;5052801;28;20493;-68
2022/05/02 11:25:12;;;;;;;9.45;6.75;;;16.10;81.20;;;;;;5049719;28;20099;-68
2022/05/02 11:28:11;;;;;;;10.45;6.43;;;16.20;72.80;;;;;;5037458;28;20041;-68
2022/05/02 11:30:59;;;;;;;11.05;5.85;;;16.30;73.90;;;;;;5068583;28;20049;-68
2022/05/02 11:33:43;;;;;;;11.38;5.97;;;16.30;75.40;;;;;;5051597;28;20049;-68
2022/05/02 11:36:12;;;;;;;10.07;6.05;;;16.10;77.80;;;;;;5051684;28;20049;-68
2022/05/02 11:38:59;;;;;;;11.85;6.75;;;15.80;73.20;;;;;;5068642;28;20044;-68
2022/05/02 11:41:28;;;;;;;9.77;6.05;;;15.60;73.20;;;;;;5051770;28;20036;-68
2022/05/02 11:44:09;;;;;;;8.95;6.70;;;15.70;80.90;;;;;;5047043;28;20040;-68
2022/05/02 11:46:55;;;;;;;12.15;7.07;;;16.00;85.70;;;;;;5049096;28;20037;-68
2022/05/02 11:49:30;;;;;;;12.20;7.40;;;16.20;80.90;;;;;;5052819;28;20488;-68
2022/05/02 11:52:00;;;;;;;11.80;7.22;;;16.10;71.60;;;;;;5032920;28;20048;-68
2022/05/02 11:54:29;;;;;;;10.30;6.78;;;16.10;70.90;;;;;;5053934;28;20048;-68
2022/05/02 11:57:22;;;;;;;12.52;7.03;;;16.00;74.90;;;;;;5049686;28;20037;-68
2022/05/02 12:00:12;;;;;;;13.30;7.45;;;15.80;76.90;;;;;;5039237;28;20044;-68
2022/05/02 12:02:44;;;;;;;9.43;6.30;;;15.60;78.00;;;;;;5035003;28;20378;-68
2022/05/02 12:05:18;;;;;;;10.13;6.32;;;15.70;78.90;;;;;;5050494;28;20051;-68
2022/05/02 12:07:53;;;;;;;10.68;6.30;;;16.00;83.10;;;;;;5049515;28;20047;-68
2022/05/02 12:10:19;;;;;;;9.63;6.40;;;16.10;80.70;;;;;;5042005;28;20095;-68
2022/05/02 12:12:51;;;;;;;12.93;6.32;;;16.20;80.40;;;;;;5051916;28;20443;-68
2022/05/02 12:15:18;;;;;;;;;;;16.20;70.10;;;;;;5054267;28;20120;-68
2022/05/02 12:17:53;;;;;;;11.02;5.97;;;16.30;76.20;;;;;;5067677;28;19928;-68
2022/05/02 12:20:31;;;;;;;9.05;6.70;;;16.40;72.30;;;;;;5034333;28;20086;-68
2022/05/02 12:23:16;;;;;;;10.32;6.50;;;16.40;74.60;;;;;;5052015;28;20052;-68
2022/05/02 12:25:50;;;;;;;9.35;5.93;;;16.50;75.00;;;;;;5033771;28;20123;-68
2022/05/02 12:28:18;;;;;;;10.88;6.43;;;16.50;71.60;;;;;;5035177;28;20037;-68
2022/05/02 12:30:53;;;;;;;11.60;6.25;;;16.50;69.30;;;;;;5049675;28;20045;-68
2022/05/02 12:33:22;;;;;;;11.55;6.28;;;16.50;73.40;;;;;;5046709;28;20045;-68
2022/05/02 12:35:49;;;;;;;9.18;5.72;;;16.40;69.60;;;;;;5064220;28;20103;-77
2022/05/02 12:38:16;;;;;;;10.07;4.90;;;16.50;76.00;;;;;;5035191;28;20124;-75
2022/05/02 12:40:49;;;;;;;10.07;5.72;;;16.60;76.30;;;;;;5038237;28;20103;-69
2022/05/02 12:43:25;;;;;;;8.68;5.25;;;16.80;69.10;;;;;;5039981;28;20033;-69
2022/05/02 12:45:52;;;;;;;9.98;6.30;;;16.80;65.00;;;;;;5054033;28;20119;-69
2022/05/02 12:48:54;;;;;;;8.60;5.50;;;16.80;62.10;;;;;;5048854;28;20083;-69
2022/05/02 12:51:27;;;;;;;8.80;5.47;;;16.30;65.70;;;;;;5057154;28;20064;-69
2022/05/02 12:54:10;;;;;;;9.65;5.70;;;16.10;66.90;;;;;;5052694;28;20120;-69
2022/05/02 13:02:38;;;;;;;10.10;4.90;;;16.20;72.10;;;;;;5054234;28;20080;-70
2022/05/02 13:05:10;;;;;;;9.35;5.80;;;16.20;71.70;;;;;;5033825;28;20107;-70
2022/05/02 13:07:49;;;;;;;8.52;5.28;;;16.20;72.90;;;;;;5034668;28;20041;-79
2022/05/02 13:10:29;;;;;;;10.80;5.97;;;16.30;70.30;;;;;;5035416;28;20037;-79
2022/05/02 13:13:03;;;;;;;9.73;5.38;;;16.20;61.50;;;;;;5053569;28;20044;-80
2022/05/02 13:15:33;;;;;;;9.48;5.32;;;16.30;70.40;;;;;;5037365;28;20116;-80
2022/05/02 13:18:02;;;;;;;10.27;5.68;;;16.40;71.40;;;;;;5035996;28;20115;-79
2022/05/02 13:20:29;;;;;;;9.40;5.93;;;16.40;70.20;;;;;;5054941;28;20397;-80
2022/05/02 13:23:02;;;;;;;11.35;7.75;;;16.50;72.80;;;;;;5043329;28;20394;-80
2022/05/02 13:25:46;;;;;;;8.63;5.78;;;16.30;66.60;;;;;;5048247;28;20040;-80
2022/05/02 13:28:23;;;;;;;9.95;5.68;;;16.50;75.70;;;;;;5036225;28;20040;-80
2022/05/02 13:30:56;;;;;;;9.20;6.18;;;16.50;67.20;;;;;;5053087;28;20543;-80
2022/05/02 13:33:34;;;;;;;11.02;6.07;;;16.50;75.20;;;;;;5037075;28;20045;-79
2022/05/02 13:36:04;;;;;;;10.52;6.03;;;16.40;73.40;;;;;;5052698;28;20069;-84
2022/05/02 13:38:47;;;;;;;8.60;5.80;;;16.50;73.30;;;;;;5071011;28;20111;-83
2022/05/02 13:41:23;;;;;;;9.95;6.93;;;16.50;73.30;;;;;;5055341;28;20025;-82
2022/05/02 13:44:08;;;;;;;12.00;5.97;;;16.50;72.10;;;;;;5035962;28;20064;-83
2022/05/02 13:46:48;;;;;;;12.55;6.35;;;16.50;77.30;;;;;;5053095;28;20053;-83
2022/05/02 13:49:32;;;;;;;9.98;5.35;;;16.70;74.60;;;;;;5035537;28;20094;-83
2022/05/02 13:52:12;;;;;;;10.35;6.13;;;16.50;69.50;;;;;;5039475;28;20106;-83
2022/05/02 13:54:39;;;;;;;8.43;5.15;;;16.50;70.10;;;;;;5071426;28;20045;-84
2022/05/02 13:57:33;;;;;;;8.20;5.15;;;16.40;70.80;;;;;;5049866;28;20073;-83
2022/05/02 14:03:29;;;;;;;7.93;5.00;;;16.60;81.70;;;;;;5054208;28;20183;-84
2022/05/02 14:06:01;;;;;;;11.18;5.28;;;16.60;73.60;;;;;;5067154;28;20056;-84